sensor_id;sensor_type;location;lat;lon;timestamp;P1;durP1;ratioP1;P2;durP2;ratioP2
21299;SDS011;10809;49.476;11.016;2023-05-10T00:02:13;2.17;;;1.98;;
21299;SDS011;10809;49.476;11.016;2023-05-10T00:04:44;2.58;;;2.10;;
21299;SDS011;10809;49.476;11.016;2023-05-10T00:07:20;2.17;;;1.98;;
21299;SDS011;10809;49.476;11.016;2023-05-10T00:09:54;2.10;;;1.90;;
21299;SDS011;10809;49.476;11.016;2023-05-10T00:12:25;1.90;;;1.75;;
21299;SDS011;10809;49.476;11.016;2023-05-10T00:14:55;2.30;;;2.10;;
21299;SDS011;10809;49.476;11.016;2023-05-10T00:17:26;2.22;;;1.75;;
21299;SDS011;10809;49.476;11.016;2023-05-10T00:19:56;1.88;;;1.75;;
21299;SDS011;10809;49.476;11.016;2023-05-10T00:25:09;2.17;;;1.90;;
21299;SDS011;10809;49.476;11.016;2023-05-10T00:27:43;1.70;;;1.58;;
21299;SDS011;10809;49.476;11.016;2023-05-10T00:30:18;1.55;;;1.45;;
21299;SDS011;10809;49.476;11.016;2023-05-10T00:32:49;1.92;;;1.83;;
21299;SDS011;10809;49.476;11.016;2023-05-10T00:35:19;1.33;;;1.23;;
21299;SDS011;10809;49.476;11.016;2023-05-10T00:37:51;2.25;;;1.90;;
21299;SDS011;10809;49.476;11.016;2023-05-10T00:40:22;1.95;;;1.75;;
21299;SDS011;10809;49.476;11.016;2023-05-10T00:42:57;1.90;;;1.80;;
21299;SDS011;10809;49.476;11.016;2023-05-10T00:45:42;2.30;;;2.10;;
21299;SDS011;10809;49.476;11.016;2023-05-10T00:48:19;3.00;;;1.77;;
21299;SDS011;10809;49.476;11.016;2023-05-10T00:50:51;2.17;;;2.07;;
21299;SDS011;10809;49.476;11.016;2023-05-10T00:53:22;3.35;;;1.88;;
21299;SDS011;10809;49.476;11.016;2023-05-10T00:55:54;2.22;;;1.95;;
21299;SDS011;10809;49.476;11.016;2023-05-10T00:58:25;2.00;;;1.85;;
21299;SDS011;10809;49.476;11.016;2023-05-10T01:00:58;2.65;;;1.80;;
21299;SDS011;10809;49.476;11.016;2023-05-10T01:03:29;1.70;;;1.60;;
21299;SDS011;10809;49.476;11.016;2023-05-10T01:06:00;1.90;;;1.70;;
21299;SDS011;10809;49.476;11.016;2023-05-10T01:08:30;1.77;;;1.47;;
21299;SDS011;10809;49.476;11.016;2023-05-10T01:11:01;1.97;;;1.70;;
21299;SDS011;10809;49.476;11.016;2023-05-10T01:13:36;1.70;;;1.50;;
21299;SDS011;10809;49.476;11.016;2023-05-10T01:16:10;2.72;;;1.95;;
21299;SDS011;10809;49.476;11.016;2023-05-10T01:18:41;1.67;;;1.58;;
21299;SDS011;10809;49.476;11.016;2023-05-10T01:21:37;2.00;;;1.70;;
21299;SDS011;10809;49.476;11.016;2023-05-10T01:36:39;1.30;;;1.30;;
21299;SDS011;10809;49.476;11.016;2023-05-10T01:39:22;1.37;;;1.27;;
21299;SDS011;10809;49.476;11.016;2023-05-10T01:41:57;1.33;;;1.23;;
21299;SDS011;10809;49.476;11.016;2023-05-10T01:44:41;1.10;;;1.00;;
21299;SDS011;10809;49.476;11.016;2023-05-10T01:47:20;1.23;;;1.17;;
21299;SDS011;10809;49.476;11.016;2023-05-10T01:50:01;1.00;;;0.97;;
21299;SDS011;10809;49.476;11.016;2023-05-10T01:52:41;1.30;;;1.27;;
21299;SDS011;10809;49.476;11.016;2023-05-10T01:55:23;1.00;;;1.00;;
21299;SDS011;10809;49.476;11.016;2023-05-10T01:58:06;1.27;;;1.13;;
21299;SDS011;10809;49.476;11.016;2023-05-10T02:00:43;1.10;;;1.10;;
21299;SDS011;10809;49.476;11.016;2023-05-10T02:03:16;2.10;;;1.17;;
21299;SDS011;10809;49.476;11.016;2023-05-10T02:05:50;1.20;;;1.20;;
21299;SDS011;10809;49.476;11.016;2023-05-10T02:08:25;1.10;;;1.00;;
21299;SDS011;10809;49.476;11.016;2023-05-10T02:10:57;1.17;;;1.07;;
21299;SDS011;10809;49.476;11.016;2023-05-10T02:13:28;1.70;;;1.10;;
21299;SDS011;10809;49.476;11.016;2023-05-10T02:16:01;1.10;;;1.00;;
21299;SDS011;10809;49.476;11.016;2023-05-10T02:18:40;1.30;;;1.20;;
21299;SDS011;10809;49.476;11.016;2023-05-10T02:21:11;1.70;;;1.17;;
21299;SDS011;10809;49.476;11.016;2023-05-10T02:23:44;0.97;;;0.93;;
21299;SDS011;10809;49.476;11.016;2023-05-10T02:26:15;1.47;;;1.10;;
21299;SDS011;10809;49.476;11.016;2023-05-10T02:28:51;2.53;;;1.53;;
21299;SDS011;10809;49.476;11.016;2023-05-10T02:31:22;0.63;;;0.63;;
21299;SDS011;10809;49.476;11.016;2023-05-10T02:33:53;0.93;;;0.93;;
21299;SDS011;10809;49.476;11.016;2023-05-10T02:36:25;1.10;;;1.10;;
21299;SDS011;10809;49.476;11.016;2023-05-10T02:38:58;0.83;;;0.83;;
21299;SDS011;10809;49.476;11.016;2023-05-10T02:41:42;1.10;;;0.70;;
21299;SDS011;10809;49.476;11.016;2023-05-10T02:44:15;0.40;;;0.40;;
21299;SDS011;10809;49.476;11.016;2023-05-10T02:46:50;0.67;;;0.67;;
21299;SDS011;10809;49.476;11.016;2023-05-10T02:49:20;0.73;;;0.73;;
21299;SDS011;10809;49.476;11.016;2023-05-10T02:51:52;0.73;;;0.60;;
21299;SDS011;10809;49.476;11.016;2023-05-10T02:54:30;0.47;;;0.47;;
21299;SDS011;10809;49.476;11.016;2023-05-10T02:57:06;1.97;;;0.77;;
21299;SDS011;10809;49.476;11.016;2023-05-10T02:59:46;0.87;;;0.50;;
21299;SDS011;10809;49.476;11.016;2023-05-10T03:02:16;0.40;;;0.40;;
21299;SDS011;10809;49.476;11.016;2023-05-10T03:04:50;0.50;;;0.50;;
21299;SDS011;10809;49.476;11.016;2023-05-10T03:07:21;0.30;;;0.30;;
21299;SDS011;10809;49.476;11.016;2023-05-10T03:09:58;0.40;;;0.40;;
21299;SDS011;10809;49.476;11.016;2023-05-10T03:12:46;0.70;;;0.57;;
21299;SDS011;10809;49.476;11.016;2023-05-10T03:18:06;0.50;;;0.30;;
21299;SDS011;10809;49.476;11.016;2023-05-10T03:20:43;2.63;;;0.80;;
21299;SDS011;10809;49.476;11.016;2023-05-10T03:26:13;0.50;;;0.30;;
21299;SDS011;10809;49.476;11.016;2023-05-10T03:28:52;0.73;;;0.50;;
21299;SDS011;10809;49.476;11.016;2023-05-10T03:31:24;0.43;;;0.43;;
21299;SDS011;10809;49.476;11.016;2023-05-10T03:33:54;0.30;;;0.30;;
21299;SDS011;10809;49.476;11.016;2023-05-10T03:36:28;0.20;;;0.20;;
21299;SDS011;10809;49.476;11.016;2023-05-10T03:38:59;0.30;;;0.20;;
21299;SDS011;10809;49.476;11.016;2023-05-10T03:41:30;0.10;;;0.10;;
21299;SDS011;10809;49.476;11.016;2023-05-10T03:44:01;0.20;;;0.20;;
21299;SDS011;10809;49.476;11.016;2023-05-10T03:46:32;0.17;;;0.10;;
21299;SDS011;10809;49.476;11.016;2023-05-10T03:49:06;0.20;;;0.20;;
21299;SDS011;10809;49.476;11.016;2023-05-10T03:51:36;0.20;;;0.10;;
21299;SDS011;10809;49.476;11.016;2023-05-10T03:54:07;0.20;;;0.20;;
21299;SDS011;10809;49.476;11.016;2023-05-10T03:56:38;0.47;;;0.07;;
21299;SDS011;10809;49.476;11.016;2023-05-10T03:59:09;0.10;;;0.10;;
21299;SDS011;10809;49.476;11.016;2023-05-10T04:01:40;0.13;;;0.10;;
21299;SDS011;10809;49.476;11.016;2023-05-10T04:04:13;0.30;;;0.10;;
21299;SDS011;10809;49.476;11.016;2023-05-10T04:06:44;0.63;;;0.20;;
21299;SDS011;10809;49.476;11.016;2023-05-10T04:09:15;0.20;;;0.20;;
21299;SDS011;10809;49.476;11.016;2023-05-10T04:11:49;0.40;;;0.10;;
21299;SDS011;10809;49.476;11.016;2023-05-10T04:14:20;0.10;;;0.10;;
21299;SDS011;10809;49.476;11.016;2023-05-10T04:16:50;1.03;;;0.20;;
21299;SDS011;10809;49.476;11.016;2023-05-10T04:19:21;0.37;;;0.10;;
21299;SDS011;10809;49.476;11.016;2023-05-10T04:21:54;0.20;;;0.20;;
21299;SDS011;10809;49.476;11.016;2023-05-10T04:24:25;0.70;;;0.17;;
21299;SDS011;10809;49.476;11.016;2023-05-10T04:26:55;0.10;;;0.10;;
21299;SDS011;10809;49.476;11.016;2023-05-10T04:29:26;0.10;;;0.10;;
21299;SDS011;10809;49.476;11.016;2023-05-10T04:31:57;1.00;;;0.40;;
21299;SDS011;10809;49.476;11.016;2023-05-10T04:34:31;0.40;;;0.20;;
21299;SDS011;10809;49.476;11.016;2023-05-10T04:37:07;0.20;;;0.20;;
21299;SDS011;10809;49.476;11.016;2023-05-10T04:39:37;0.03;;;0.03;;
21299;SDS011;10809;49.476;11.016;2023-05-10T04:42:08;0.10;;;0.10;;
21299;SDS011;10809;49.476;11.016;2023-05-10T04:44:47;0.93;;;0.10;;
21299;SDS011;10809;49.476;11.016;2023-05-10T04:47:24;0.10;;;0.10;;
21299;SDS011;10809;49.476;11.016;2023-05-10T04:49:54;0.20;;;0.10;;
21299;SDS011;10809;49.476;11.016;2023-05-10T04:52:25;0.07;;;0.07;;
21299;SDS011;10809;49.476;11.016;2023-05-10T04:54:56;0.10;;;0.10;;
21299;SDS011;10809;49.476;11.016;2023-05-10T04:57:26;0.20;;;0.10;;
21299;SDS011;10809;49.476;11.016;2023-05-10T04:59:56;0.10;;;0.10;;
21299;SDS011;10809;49.476;11.016;2023-05-10T05:02:27;0.00;;;0.00;;
21299;SDS011;10809;49.476;11.016;2023-05-10T05:05:00;0.00;;;0.00;;
21299;SDS011;10809;49.476;11.016;2023-05-10T05:07:43;0.10;;;0.10;;
21299;SDS011;10809;49.476;11.016;2023-05-10T05:10:13;0.00;;;0.00;;
21299;SDS011;10809;49.476;11.016;2023-05-10T05:12:44;0.00;;;0.00;;
21299;SDS011;10809;49.476;11.016;2023-05-10T05:15:14;0.20;;;0.20;;
21299;SDS011;10809;49.476;11.016;2023-05-10T05:17:46;0.10;;;0.10;;
21299;SDS011;10809;49.476;11.016;2023-05-10T05:20:17;0.10;;;0.10;;
21299;SDS011;10809;49.476;11.016;2023-05-10T05:22:52;0.00;;;0.00;;
21299;SDS011;10809;49.476;11.016;2023-05-10T05:25:22;0.00;;;0.00;;
21299;SDS011;10809;49.476;11.016;2023-05-10T05:27:53;0.40;;;0.10;;
21299;SDS011;10809;49.476;11.016;2023-05-10T05:30:23;0.10;;;0.10;;
21299;SDS011;10809;49.476;11.016;2023-05-10T05:32:53;0.20;;;0.10;;
21299;SDS011;10809;49.476;11.016;2023-05-10T05:35:24;0.10;;;0.10;;
21299;SDS011;10809;49.476;11.016;2023-05-10T05:37:54;0.10;;;0.10;;
21299;SDS011;10809;49.476;11.016;2023-05-10T05:40:29;0.10;;;0.03;;
21299;SDS011;10809;49.476;11.016;2023-05-10T05:42:59;0.57;;;0.10;;
21299;SDS011;10809;49.476;11.016;2023-05-10T05:45:29;0.10;;;0.10;;
21299;SDS011;10809;49.476;11.016;2023-05-10T05:48:00;0.10;;;0.10;;
21299;SDS011;10809;49.476;11.016;2023-05-10T05:50:37;0.40;;;0.20;;
21299;SDS011;10809;49.476;11.016;2023-05-10T05:53:07;0.30;;;0.20;;
21299;SDS011;10809;49.476;11.016;2023-05-10T05:55:38;0.10;;;0.10;;
21299;SDS011;10809;49.476;11.016;2023-05-10T05:58:09;0.10;;;0.10;;
21299;SDS011;10809;49.476;11.016;2023-05-10T06:00:39;0.10;;;0.10;;
21299;SDS011;10809;49.476;11.016;2023-05-10T06:03:13;0.10;;;0.10;;
21299;SDS011;10809;49.476;11.016;2023-05-10T06:05:44;0.20;;;0.20;;
21299;SDS011;10809;49.476;11.016;2023-05-10T06:08:14;0.20;;;0.20;;
21299;SDS011;10809;49.476;11.016;2023-05-10T06:10:45;0.10;;;0.10;;
21299;SDS011;10809;49.476;11.016;2023-05-10T06:13:15;0.10;;;0.10;;
21299;SDS011;10809;49.476;11.016;2023-05-10T06:15:46;0.20;;;0.20;;
21299;SDS011;10809;49.476;11.016;2023-05-10T06:18:20;0.27;;;0.27;;
21299;SDS011;10809;49.476;11.016;2023-05-10T06:20:50;0.10;;;0.10;;
21299;SDS011;10809;49.476;11.016;2023-05-10T06:23:21;0.10;;;0.10;;
21299;SDS011;10809;49.476;11.016;2023-05-10T06:25:58;0.10;;;0.10;;
21299;SDS011;10809;49.476;11.016;2023-05-10T06:28:32;0.10;;;0.10;;
21299;SDS011;10809;49.476;11.016;2023-05-10T06:31:03;0.10;;;0.10;;
21299;SDS011;10809;49.476;11.016;2023-05-10T06:33:35;0.10;;;0.10;;
21299;SDS011;10809;49.476;11.016;2023-05-10T06:36:05;0.67;;;0.30;;
21299;SDS011;10809;49.476;11.016;2023-05-10T06:38:39;2.53;;;0.40;;
21299;SDS011;10809;49.476;11.016;2023-05-10T06:41:09;0.20;;;0.20;;
21299;SDS011;10809;49.476;11.016;2023-05-10T06:43:40;0.50;;;0.30;;
21299;SDS011;10809;49.476;11.016;2023-05-10T06:46:11;0.20;;;0.20;;
21299;SDS011;10809;49.476;11.016;2023-05-10T06:48:41;0.10;;;0.10;;
21299;SDS011;10809;49.476;11.016;2023-05-10T06:51:12;0.47;;;0.20;;
21299;SDS011;10809;49.476;11.016;2023-05-10T06:53:42;0.40;;;0.20;;
21299;SDS011;10809;49.476;11.016;2023-05-10T06:56:13;0.20;;;0.17;;
21299;SDS011;10809;49.476;11.016;2023-05-10T06:58:44;0.20;;;0.20;;
21299;SDS011;10809;49.476;11.016;2023-05-10T07:01:14;1.00;;;0.30;;
21299;SDS011;10809;49.476;11.016;2023-05-10T07:03:51;0.20;;;0.20;;
21299;SDS011;10809;49.476;11.016;2023-05-10T07:06:22;0.57;;;0.57;;
21299;SDS011;10809;49.476;11.016;2023-05-10T07:08:52;0.20;;;0.20;;
21299;SDS011;10809;49.476;11.016;2023-05-10T07:11:23;0.20;;;0.20;;
21299;SDS011;10809;49.476;11.016;2023-05-10T07:13:53;0.30;;;0.20;;
21299;SDS011;10809;49.476;11.016;2023-05-10T07:16:24;0.20;;;0.20;;
21299;SDS011;10809;49.476;11.016;2023-05-10T07:18:54;0.30;;;0.30;;
21299;SDS011;10809;49.476;11.016;2023-05-10T07:21:25;0.70;;;0.20;;
21299;SDS011;10809;49.476;11.016;2023-05-10T07:23:58;0.17;;;0.17;;
21299;SDS011;10809;49.476;11.016;2023-05-10T07:26:30;0.10;;;0.10;;
21299;SDS011;10809;49.476;11.016;2023-05-10T07:29:00;0.13;;;0.10;;
21299;SDS011;10809;49.476;11.016;2023-05-10T07:31:31;0.10;;;0.10;;
21299;SDS011;10809;49.476;11.016;2023-05-10T07:34:01;0.20;;;0.10;;
21299;SDS011;10809;49.476;11.016;2023-05-10T07:36:32;0.20;;;0.20;;
21299;SDS011;10809;49.476;11.016;2023-05-10T07:39:02;0.20;;;0.20;;
21299;SDS011;10809;49.476;11.016;2023-05-10T07:41:33;0.20;;;0.10;;
21299;SDS011;10809;49.476;11.016;2023-05-10T07:44:04;5.93;;;0.50;;
21299;SDS011;10809;49.476;11.016;2023-05-10T07:46:35;0.82;;;0.40;;
21299;SDS011;10809;49.476;11.016;2023-05-10T07:49:08;0.53;;;0.27;;
21299;SDS011;10809;49.476;11.016;2023-05-10T07:51:39;0.10;;;0.10;;
21299;SDS011;10809;49.476;11.016;2023-05-10T07:54:09;0.50;;;0.20;;
21299;SDS011;10809;49.476;11.016;2023-05-10T07:56:40;0.93;;;0.30;;
21299;SDS011;10809;49.476;11.016;2023-05-10T07:59:16;1.53;;;0.20;;
21299;SDS011;10809;49.476;11.016;2023-05-10T08:01:47;0.10;;;0.10;;
21299;SDS011;10809;49.476;11.016;2023-05-10T08:04:17;0.57;;;0.30;;
21299;SDS011;10809;49.476;11.016;2023-05-10T08:06:54;0.40;;;0.20;;
21299;SDS011;10809;49.476;11.016;2023-05-10T08:09:25;0.30;;;0.30;;
21299;SDS011;10809;49.476;11.016;2023-05-10T08:11:56;0.20;;;0.20;;
21299;SDS011;10809;49.476;11.016;2023-05-10T08:14:27;0.13;;;0.13;;
21299;SDS011;10809;49.476;11.016;2023-05-10T08:16:59;0.20;;;0.20;;
21299;SDS011;10809;49.476;11.016;2023-05-10T08:19:29;0.23;;;0.10;;
21299;SDS011;10809;49.476;11.016;2023-05-10T08:22:00;2.20;;;0.23;;
21299;SDS011;10809;49.476;11.016;2023-05-10T08:24:30;0.20;;;0.20;;
21299;SDS011;10809;49.476;11.016;2023-05-10T08:27:01;0.53;;;0.30;;
21299;SDS011;10809;49.476;11.016;2023-05-10T08:29:31;2.17;;;0.27;;
21299;SDS011;10809;49.476;11.016;2023-05-10T08:32:02;0.10;;;0.10;;
21299;SDS011;10809;49.476;11.016;2023-05-10T08:34:32;0.20;;;0.20;;
21299;SDS011;10809;49.476;11.016;2023-05-10T08:37:09;0.30;;;0.30;;
21299;SDS011;10809;49.476;11.016;2023-05-10T08:39:46;0.22;;;0.22;;
21299;SDS011;10809;49.476;11.016;2023-05-10T08:42:19;0.30;;;0.30;;
21299;SDS011;10809;49.476;11.016;2023-05-10T08:44:52;0.17;;;0.17;;
21299;SDS011;10809;49.476;11.016;2023-05-10T08:47:24;0.20;;;0.20;;
21299;SDS011;10809;49.476;11.016;2023-05-10T08:49:55;0.13;;;0.13;;
21299;SDS011;10809;49.476;11.016;2023-05-10T08:52:29;0.30;;;0.25;;
21299;SDS011;10809;49.476;11.016;2023-05-10T08:55:00;0.20;;;0.20;;
21299;SDS011;10809;49.476;11.016;2023-05-10T08:57:31;0.60;;;0.40;;
21299;SDS011;10809;49.476;11.016;2023-05-10T09:00:02;0.85;;;0.28;;
21299;SDS011;10809;49.476;11.016;2023-05-10T09:02:33;0.15;;;0.10;;
21299;SDS011;10809;49.476;11.016;2023-05-10T09:05:04;1.73;;;0.28;;
21299;SDS011;10809;49.476;11.016;2023-05-10T09:07:35;1.03;;;0.30;;
21299;SDS011;10809;49.476;11.016;2023-05-10T09:10:06;0.40;;;0.30;;
21299;SDS011;10809;49.476;11.016;2023-05-10T09:12:38;0.23;;;0.23;;
21299;SDS011;10809;49.476;11.016;2023-05-10T09:15:09;1.50;;;0.20;;
21299;SDS011;10809;49.476;11.016;2023-05-10T09:17:41;0.40;;;0.37;;
21299;SDS011;10809;49.476;11.016;2023-05-10T09:20:16;0.93;;;0.30;;
21299;SDS011;10809;49.476;11.016;2023-05-10T09:22:50;0.30;;;0.30;;
21299;SDS011;10809;49.476;11.016;2023-05-10T09:25:21;0.77;;;0.33;;
21299;SDS011;10809;49.476;11.016;2023-05-10T09:27:55;0.30;;;0.30;;
21299;SDS011;10809;49.476;11.016;2023-05-10T09:30:29;0.30;;;0.30;;
21299;SDS011;10809;49.476;11.016;2023-05-10T09:33:00;0.80;;;0.40;;
21299;SDS011;10809;49.476;11.016;2023-05-10T09:35:31;0.50;;;0.40;;
21299;SDS011;10809;49.476;11.016;2023-05-10T09:38:03;0.60;;;0.50;;
21299;SDS011;10809;49.476;11.016;2023-05-10T09:40:35;0.73;;;0.40;;
21299;SDS011;10809;49.476;11.016;2023-05-10T09:43:07;0.67;;;0.57;;
21299;SDS011;10809;49.476;11.016;2023-05-10T09:45:37;0.73;;;0.52;;
21299;SDS011;10809;49.476;11.016;2023-05-10T09:48:11;0.28;;;0.28;;
21299;SDS011;10809;49.476;11.016;2023-05-10T09:50:55;0.65;;;0.57;;
21299;SDS011;10809;49.476;11.016;2023-05-10T09:53:27;0.88;;;0.40;;
21299;SDS011;10809;49.476;11.016;2023-05-10T09:55:57;0.30;;;0.30;;
21299;SDS011;10809;49.476;11.016;2023-05-10T09:58:28;1.20;;;0.60;;
21299;SDS011;10809;49.476;11.016;2023-05-10T10:00:58;1.25;;;0.43;;
21299;SDS011;10809;49.476;11.016;2023-05-10T10:03:29;0.63;;;0.30;;
21299;SDS011;10809;49.476;11.016;2023-05-10T10:06:00;0.30;;;0.30;;
21299;SDS011;10809;49.476;11.016;2023-05-10T10:08:30;0.40;;;0.25;;
21299;SDS011;10809;49.476;11.016;2023-05-10T10:11:01;1.40;;;0.30;;
21299;SDS011;10809;49.476;11.016;2023-05-10T10:13:32;0.40;;;0.40;;
21299;SDS011;10809;49.476;11.016;2023-05-10T10:16:02;0.32;;;0.25;;
21299;SDS011;10809;49.476;11.016;2023-05-10T10:18:34;0.63;;;0.20;;
21299;SDS011;10809;49.476;11.016;2023-05-10T10:21:08;0.22;;;0.22;;
21299;SDS011;10809;49.476;11.016;2023-05-10T10:23:39;0.20;;;0.20;;
21299;SDS011;10809;49.476;11.016;2023-05-10T10:26:12;0.30;;;0.30;;
21299;SDS011;10809;49.476;11.016;2023-05-10T10:31:36;0.30;;;0.30;;
21299;SDS011;10809;49.476;11.016;2023-05-10T10:34:22;0.50;;;0.32;;
21299;SDS011;10809;49.476;11.016;2023-05-10T10:37:03;0.57;;;0.30;;
21299;SDS011;10809;49.476;11.016;2023-05-10T10:39:35;0.20;;;0.20;;
21299;SDS011;10809;49.476;11.016;2023-05-10T10:42:06;0.50;;;0.35;;
21299;SDS011;10809;49.476;11.016;2023-05-10T10:44:37;0.80;;;0.20;;
21299;SDS011;10809;49.476;11.016;2023-05-10T10:47:23;0.20;;;0.20;;
21299;SDS011;10809;49.476;11.016;2023-05-10T10:52:36;0.45;;;0.10;;
21299;SDS011;10809;49.476;11.016;2023-05-10T10:55:08;2.50;;;0.40;;
21299;SDS011;10809;49.476;11.016;2023-05-10T10:57:49;0.82;;;0.30;;
21299;SDS011;10809;49.476;11.016;2023-05-10T11:00:31;0.52;;;0.20;;
21299;SDS011;10809;49.476;11.016;2023-05-10T11:03:14;0.20;;;0.20;;
21299;SDS011;10809;49.476;11.016;2023-05-10T11:05:49;0.30;;;0.28;;
21299;SDS011;10809;49.476;11.016;2023-05-10T11:08:29;0.20;;;0.20;;
21299;SDS011;10809;49.476;11.016;2023-05-10T11:13:54;0.20;;;0.20;;
21299;SDS011;10809;49.476;11.016;2023-05-10T11:16:42;0.98;;;0.40;;
21299;SDS011;10809;49.476;11.016;2023-05-10T11:19:17;0.30;;;0.30;;
21299;SDS011;10809;49.476;11.016;2023-05-10T11:21:53;1.80;;;0.30;;
21299;SDS011;10809;49.476;11.016;2023-05-10T11:24:55;0.75;;;0.30;;
21299;SDS011;10809;49.476;11.016;2023-05-10T11:27:27;0.50;;;0.40;;
21299;SDS011;10809;49.476;11.016;2023-05-10T11:29:58;1.45;;;0.40;;
21299;SDS011;10809;49.476;11.016;2023-05-10T11:32:28;0.30;;;0.30;;
21299;SDS011;10809;49.476;11.016;2023-05-10T11:34:59;0.20;;;0.20;;
21299;SDS011;10809;49.476;11.016;2023-05-10T11:37:36;0.40;;;0.22;;
21299;SDS011;10809;49.476;11.016;2023-05-10T11:40:11;0.63;;;0.30;;
21299;SDS011;10809;49.476;11.016;2023-05-10T11:42:42;0.28;;;0.28;;
21299;SDS011;10809;49.476;11.016;2023-05-10T11:45:12;0.20;;;0.20;;
21299;SDS011;10809;49.476;11.016;2023-05-10T11:47:43;0.57;;;0.20;;
21299;SDS011;10809;49.476;11.016;2023-05-10T11:50:13;0.40;;;0.38;;
21299;SDS011;10809;49.476;11.016;2023-05-10T11:52:44;1.75;;;0.30;;
21299;SDS011;10809;49.476;11.016;2023-05-10T11:55:14;0.20;;;0.20;;
21299;SDS011;10809;49.476;11.016;2023-05-10T11:57:45;0.20;;;0.20;;
21299;SDS011;10809;49.476;11.016;2023-05-10T12:00:16;0.30;;;0.30;;
21299;SDS011;10809;49.476;11.016;2023-05-10T12:02:47;0.40;;;0.40;;
21299;SDS011;10809;49.476;11.016;2023-05-10T12:05:18;0.30;;;0.30;;
21299;SDS011;10809;49.476;11.016;2023-05-10T12:07:48;0.43;;;0.30;;
21299;SDS011;10809;49.476;11.016;2023-05-10T12:10:25;0.20;;;0.20;;
21299;SDS011;10809;49.476;11.016;2023-05-10T12:12:56;0.10;;;0.10;;
21299;SDS011;10809;49.476;11.016;2023-05-10T12:15:27;0.20;;;0.20;;
21299;SDS011;10809;49.476;11.016;2023-05-10T12:17:58;0.20;;;0.20;;
21299;SDS011;10809;49.476;11.016;2023-05-10T12:20:31;0.10;;;0.10;;
21299;SDS011;10809;49.476;11.016;2023-05-10T12:23:01;0.20;;;0.20;;
21299;SDS011;10809;49.476;11.016;2023-05-10T12:25:34;0.25;;;0.25;;
21299;SDS011;10809;49.476;11.016;2023-05-10T12:28:08;0.93;;;0.30;;
21299;SDS011;10809;49.476;11.016;2023-05-10T12:30:39;0.30;;;0.30;;
21299;SDS011;10809;49.476;11.016;2023-05-10T12:33:10;0.30;;;0.30;;
21299;SDS011;10809;49.476;11.016;2023-05-10T12:35:49;0.30;;;0.20;;
21299;SDS011;10809;49.476;11.016;2023-05-10T12:38:25;1.38;;;0.28;;
21299;SDS011;10809;49.476;11.016;2023-05-10T12:41:18;0.88;;;0.30;;
21299;SDS011;10809;49.476;11.016;2023-05-10T12:43:48;0.35;;;0.28;;
21299;SDS011;10809;49.476;11.016;2023-05-10T12:46:18;0.30;;;0.30;;
21299;SDS011;10809;49.476;11.016;2023-05-10T12:48:55;0.45;;;0.30;;
21299;SDS011;10809;49.476;11.016;2023-05-10T12:51:25;0.88;;;0.20;;
21299;SDS011;10809;49.476;11.016;2023-05-10T12:53:56;0.10;;;0.10;;
21299;SDS011;10809;49.476;11.016;2023-05-10T12:56:26;0.30;;;0.30;;
21299;SDS011;10809;49.476;11.016;2023-05-10T12:59:03;0.15;;;0.15;;
21299;SDS011;10809;49.476;11.016;2023-05-10T13:01:42;1.17;;;0.40;;
21299;SDS011;10809;49.476;11.016;2023-05-10T13:04:12;0.20;;;0.20;;
21299;SDS011;10809;49.476;11.016;2023-05-10T13:06:43;0.20;;;0.20;;
21299;SDS011;10809;49.476;11.016;2023-05-10T13:09:13;0.70;;;0.38;;
21299;SDS011;10809;49.476;11.016;2023-05-10T13:14:40;0.25;;;0.25;;
21299;SDS011;10809;49.476;11.016;2023-05-10T13:19:51;1.25;;;0.43;;
21299;SDS011;10809;49.476;11.016;2023-05-10T13:22:21;1.58;;;0.43;;
21299;SDS011;10809;49.476;11.016;2023-05-10T13:24:51;0.43;;;0.30;;
21299;SDS011;10809;49.476;11.016;2023-05-10T13:27:22;0.30;;;0.30;;
21299;SDS011;10809;49.476;11.016;2023-05-10T13:29:52;1.40;;;0.40;;
21299;SDS011;10809;49.476;11.016;2023-05-10T13:32:23;0.35;;;0.30;;
21299;SDS011;10809;49.476;11.016;2023-05-10T13:35:03;0.83;;;0.40;;
21299;SDS011;10809;49.476;11.016;2023-05-10T13:37:34;0.77;;;0.32;;
21299;SDS011;10809;49.476;11.016;2023-05-10T13:40:10;2.42;;;0.25;;
21299;SDS011;10809;49.476;11.016;2023-05-10T13:42:43;2.75;;;0.43;;
21299;SDS011;10809;49.476;11.016;2023-05-10T13:45:14;0.38;;;0.38;;
21299;SDS011;10809;49.476;11.016;2023-05-10T13:47:44;0.25;;;0.25;;
21299;SDS011;10809;49.476;11.016;2023-05-10T13:50:15;2.30;;;0.70;;
21299;SDS011;10809;49.476;11.016;2023-05-10T13:52:45;0.30;;;0.30;;
21299;SDS011;10809;49.476;11.016;2023-05-10T13:55:16;0.65;;;0.50;;
21299;SDS011;10809;49.476;11.016;2023-05-10T13:57:46;0.40;;;0.30;;
21299;SDS011;10809;49.476;11.016;2023-05-10T14:00:19;0.90;;;0.40;;
21299;SDS011;10809;49.476;11.016;2023-05-10T14:02:50;0.20;;;0.20;;
21299;SDS011;10809;49.476;11.016;2023-05-10T14:05:20;1.13;;;0.28;;
21299;SDS011;10809;49.476;11.016;2023-05-10T14:07:51;0.38;;;0.20;;
21299;SDS011;10809;49.476;11.016;2023-05-10T14:10:24;0.70;;;0.20;;
21299;SDS011;10809;49.476;11.016;2023-05-10T14:12:54;0.73;;;0.38;;
21299;SDS011;10809;49.476;11.016;2023-05-10T14:15:25;0.55;;;0.38;;
21299;SDS011;10809;49.476;11.016;2023-05-10T14:17:55;2.22;;;0.50;;
21299;SDS011;10809;49.476;11.016;2023-05-10T14:20:29;0.90;;;0.60;;
21299;SDS011;10809;49.476;11.016;2023-05-10T14:23:09;0.30;;;0.30;;
21299;SDS011;10809;49.476;11.016;2023-05-10T14:25:42;0.30;;;0.30;;
21299;SDS011;10809;49.476;11.016;2023-05-10T14:28:16;0.45;;;0.30;;
21299;SDS011;10809;49.476;11.016;2023-05-10T14:30:48;0.30;;;0.30;;
21299;SDS011;10809;49.476;11.016;2023-05-10T14:33:18;0.17;;;0.17;;
21299;SDS011;10809;49.476;11.016;2023-05-10T14:35:49;0.10;;;0.10;;
21299;SDS011;10809;49.476;11.016;2023-05-10T14:38:23;1.45;;;0.20;;
21299;SDS011;10809;49.476;11.016;2023-05-10T14:40:56;0.90;;;0.38;;
21299;SDS011;10809;49.476;11.016;2023-05-10T14:43:27;0.35;;;0.22;;
21299;SDS011;10809;49.476;11.016;2023-05-10T14:48:57;1.00;;;0.47;;
21299;SDS011;10809;49.476;11.016;2023-05-10T14:51:28;2.22;;;0.22;;
21299;SDS011;10809;49.476;11.016;2023-05-10T14:53:58;0.70;;;0.50;;
21299;SDS011;10809;49.476;11.016;2023-05-10T14:56:29;0.25;;;0.25;;
21299;SDS011;10809;49.476;11.016;2023-05-10T14:58:59;0.30;;;0.25;;
21299;SDS011;10809;49.476;11.016;2023-05-10T15:01:30;1.33;;;0.32;;
21299;SDS011;10809;49.476;11.016;2023-05-10T15:04:03;2.72;;;0.30;;
21299;SDS011;10809;49.476;11.016;2023-05-10T15:06:34;0.20;;;0.20;;
21299;SDS011;10809;49.476;11.016;2023-05-10T15:09:05;0.20;;;0.20;;
21299;SDS011;10809;49.476;11.016;2023-05-10T15:11:36;0.68;;;0.30;;
21299;SDS011;10809;49.476;11.016;2023-05-10T15:14:06;0.17;;;0.17;;
21299;SDS011;10809;49.476;11.016;2023-05-10T15:16:36;0.30;;;0.25;;
21299;SDS011;10809;49.476;11.016;2023-05-10T15:19:11;0.93;;;0.30;;
21299;SDS011;10809;49.476;11.016;2023-05-10T15:21:41;0.20;;;0.20;;
21299;SDS011;10809;49.476;11.016;2023-05-10T15:24:20;0.10;;;0.10;;
21299;SDS011;10809;49.476;11.016;2023-05-10T15:26:51;0.33;;;0.10;;
21299;SDS011;10809;49.476;11.016;2023-05-10T15:29:21;0.83;;;0.13;;
21299;SDS011;10809;49.476;11.016;2023-05-10T15:31:52;0.17;;;0.17;;
21299;SDS011;10809;49.476;11.016;2023-05-10T15:34:22;0.10;;;0.10;;
21299;SDS011;10809;49.476;11.016;2023-05-10T15:36:53;1.80;;;0.20;;
21299;SDS011;10809;49.476;11.016;2023-05-10T15:39:23;0.10;;;0.10;;
21299;SDS011;10809;49.476;11.016;2023-05-10T15:41:53;0.27;;;0.27;;
21299;SDS011;10809;49.476;11.016;2023-05-10T15:44:24;0.20;;;0.20;;